createdAt,value
2019-03-01T00:01:28.405Z,22.17
2019-03-01T00:03:30.012Z,22.19
2019-03-01T00:05:31.619Z,22.20
2019-03-01T00:07:33.268Z,22.19
2019-03-01T00:09:34.866Z,22.17
2019-03-01T00:11:36.511Z,22.15
2019-03-01T00:13:38.147Z,22.12
2019-03-01T00:15:39.745Z,22.10
2019-03-01T00:17:41.347Z,22.03
2019-03-01T00:19:42.976Z,22.05
2019-03-01T00:21:44.588Z,22.02
2019-03-01T00:23:46.201Z,22.00
2019-03-01T00:25:47.849Z,22.00
2019-03-01T00:27:49.455Z,22.02
2019-03-01T00:29:51.053Z,22.02
2019-03-01T00:31:52.660Z,22.02
2019-03-01T00:33:54.297Z,22.06
2019-03-01T00:35:55.889Z,22.05
2019-03-01T00:37:57.489Z,22.05
2019-03-01T00:39:59.124Z,22.06
2019-03-01T00:42:00.736Z,22.09
2019-03-01T00:44:02.375Z,22.05
2019-03-01T00:46:03.986Z,22.05
2019-03-01T00:48:05.587Z,22.04
2019-03-01T00:50:07.189Z,22.03
2019-03-01T00:52:08.796Z,22.01
2019-03-01T00:54:10.421Z,21.97
2019-03-01T00:56:12.020Z,21.93
2019-03-01T00:58:13.623Z,21.90
2019-03-01T01:00:15.218Z,21.89
2019-03-01T01:02:16.836Z,21.89
2019-03-01T01:04:18.452Z,21.88
2019-03-01T01:06:20.049Z,21.88
2019-03-01T01:08:21.674Z,21.87
2019-03-01T01:10:23.285Z,21.88
2019-03-01T01:12:24.892Z,21.90
2019-03-01T01:14:26.533Z,21.90
2019-03-01T01:16:28.121Z,21.91
2019-03-01T01:18:29.752Z,21.91
2019-03-01T01:20:31.359Z,21.90
2019-03-01T01:22:32.952Z,21.87
2019-03-01T01:24:34.564Z,21.84
2019-03-01T01:26:36.172Z,21.85
2019-03-01T01:28:37.809Z,21.85
2019-03-01T01:30:39.406Z,21.86
2019-03-01T01:32:41.016Z,21.87
2019-03-01T01:34:42.614Z,21.90
2019-03-01T01:36:44.227Z,21.87
2019-03-01T01:38:45.811Z,21.88
2019-03-01T01:40:47.402Z,21.86
2019-03-01T01:42:49.507Z,21.87
2019-03-01T01:44:51.138Z,21.90
2019-03-01T01:46:52.752Z,21.92
2019-03-01T01:48:54.353Z,21.95
2019-03-01T01:50:55.995Z,21.96
2019-03-01T01:52:57.593Z,21.96
2019-03-01T01:54:59.190Z,21.95
2019-03-01T01:57:01.520Z,21.96
2019-03-01T01:59:03.157Z,21.97
2019-03-01T02:01:04.794Z,21.94
2019-03-01T02:03:06.407Z,21.93
2019-03-01T02:05:08.034Z,21.93
2019-03-01T02:07:09.649Z,21.92
2019-03-01T02:09:11.264Z,21.91
2019-03-01T02:11:12.895Z,21.90
2019-03-01T02:13:14.507Z,21.91
2019-03-01T02:15:16.101Z,21.90
2019-03-01T02:17:17.699Z,21.90
2019-03-01T02:19:19.326Z,21.90
2019-03-01T02:21:20.926Z,21.89
2019-03-01T02:23:22.564Z,21.87
2019-03-01T02:25:24.171Z,21.85
2019-03-01T02:27:25.824Z,21.86
2019-03-01T02:29:27.411Z,21.86
2019-03-01T02:31:29.022Z,21.85
2019-03-01T02:33:30.665Z,21.89
2019-03-01T02:35:32.266Z,21.90
2019-03-01T02:37:33.862Z,21.92
2019-03-01T02:39:35.463Z,21.93
2019-03-01T02:41:37.070Z,21.94
2019-03-01T02:43:38.703Z,21.93
2019-03-01T02:45:40.309Z,21.94
2019-03-01T02:47:41.923Z,21.93
2019-03-01T02:49:43.536Z,21.94
2019-03-01T02:51:45.148Z,21.95
2019-03-01T02:53:46.790Z,22.01
2019-03-01T02:55:48.417Z,22.05
2019-03-01T02:57:50.073Z,22.10
2019-03-01T02:59:51.654Z,22.16
2019-03-01T03:01:53.260Z,22.22
2019-03-01T03:03:54.874Z,22.26
2019-03-01T03:06:15.232Z,22.28
2019-03-01T03:08:16.830Z,22.08
2019-03-01T03:10:18.437Z,22.33
2019-03-01T03:12:20.071Z,22.34
2019-03-01T03:14:21.665Z,22.36
2019-03-01T03:16:23.294Z,22.37
2019-03-01T03:18:24.896Z,22.37
2019-03-01T03:20:26.491Z,22.37
2019-03-01T03:22:28.106Z,22.34
2019-03-01T03:24:29.712Z,22.33
2019-03-01T03:26:31.331Z,22.32
2019-03-01T03:28:32.948Z,22.33
2019-03-01T03:30:34.575Z,22.40
2019-03-01T03:32:36.192Z,22.43
2019-03-01T03:34:37.808Z,22.43
2019-03-01T03:36:39.459Z,22.27
2019-03-01T03:38:41.057Z,22.22
2019-03-01T03:40:42.656Z,22.19
2019-03-01T03:42:44.253Z,22.17
2019-03-01T03:44:45.850Z,22.11
2019-03-01T03:46:47.488Z,22.06
2019-03-01T03:48:49.092Z,22.01
2019-03-01T03:50:50.676Z,22.12
2019-03-01T03:52:52.294Z,22.34
2019-03-01T03:54:54.021Z,21.64
2019-03-01T03:56:55.613Z,21.34
2019-03-01T03:58:57.212Z,21.46
2019-03-01T04:00:58.840Z,21.54
2019-03-01T04:03:00.474Z,21.57
2019-03-01T04:05:02.126Z,21.56
2019-03-01T04:07:03.736Z,21.54
2019-03-01T04:09:05.326Z,21.52
2019-03-01T04:11:06.950Z,21.37
2019-03-01T04:13:08.550Z,21.51
2019-03-01T04:15:10.177Z,21.50
2019-03-01T04:17:11.786Z,21.52
2019-03-01T04:19:13.420Z,21.54
2019-03-01T04:21:15.037Z,21.55
2019-03-01T04:23:16.635Z,21.58
2019-03-01T04:25:18.246Z,21.57
2019-03-01T04:27:19.837Z,21.54
2019-03-01T04:29:21.445Z,21.53
2019-03-01T04:31:23.042Z,21.51
2019-03-01T04:33:24.674Z,21.50
2019-03-01T04:35:26.257Z,21.48
2019-03-01T04:37:27.883Z,21.47
2019-03-01T04:39:29.498Z,21.45
2019-03-01T04:41:31.097Z,21.44
2019-03-01T04:43:32.722Z,21.43
2019-03-01T04:45:34.317Z,21.41
2019-03-01T04:47:35.937Z,21.41
2019-03-01T04:49:37.538Z,21.39
2019-03-01T04:51:40.306Z,21.36
2019-03-01T04:53:40.910Z,21.36
2019-03-01T04:55:42.509Z,21.34
2019-03-01T04:57:44.105Z,21.32
2019-03-01T04:59:45.716Z,21.30
2019-03-01T05:01:47.341Z,21.28
2019-03-01T05:03:48.940Z,21.27
2019-03-01T05:05:50.566Z,21.25
2019-03-01T05:07:52.217Z,21.23
2019-03-01T05:09:55.585Z,21.18
2019-03-01T05:11:55.482Z,21.15
2019-03-01T05:13:57.109Z,21.13
2019-03-01T05:15:58.702Z,20.95
2019-03-01T05:18:00.283Z,21.07
2019-03-01T05:20:01.879Z,21.01
2019-03-01T05:22:03.491Z,20.94
2019-03-01T05:24:05.119Z,20.91
2019-03-01T05:26:06.717Z,20.90
2019-03-01T05:28:08.314Z,20.91
2019-03-01T05:30:09.921Z,20.90
2019-03-01T05:32:11.529Z,20.91
2019-03-01T05:34:13.180Z,20.92
2019-03-01T05:36:14.774Z,20.93
2019-03-01T05:38:21.771Z,20.95
2019-03-01T05:40:18.071Z,20.99
2019-03-01T05:42:19.666Z,21.02
2019-03-01T05:44:21.262Z,21.07
2019-03-01T05:46:22.889Z,21.13
2019-03-01T05:48:24.486Z,21.17
2019-03-01T05:50:26.125Z,21.22
2019-03-01T05:52:27.732Z,21.29
2019-03-01T05:54:29.329Z,21.34
2019-03-01T05:56:30.964Z,21.39
2019-03-01T05:58:32.559Z,21.41
2019-03-01T06:00:34.196Z,21.46
2019-03-01T06:02:35.794Z,21.51
2019-03-01T06:04:37.394Z,21.52
2019-03-01T06:06:39.018Z,21.53
2019-03-01T06:08:40.628Z,21.53
2019-03-01T06:10:42.221Z,21.51
2019-03-01T06:12:43.817Z,21.51
2019-03-01T06:14:45.419Z,21.49
2019-03-01T06:16:47.050Z,21.47
2019-03-01T06:18:48.683Z,21.44
2019-03-01T06:20:50.292Z,21.41
2019-03-01T06:22:51.914Z,21.39
2019-03-01T06:24:53.509Z,21.36
2019-03-01T06:26:55.096Z,21.34
2019-03-01T06:28:56.727Z,21.32
2019-03-01T06:30:58.326Z,21.29
2019-03-01T06:32:59.923Z,21.28
2019-03-01T06:35:01.554Z,21.24
2019-03-01T06:37:03.149Z,21.21
2019-03-01T06:39:24.454Z,21.19
2019-03-01T06:41:26.086Z,21.16
2019-03-01T06:43:27.669Z,21.15
2019-03-01T06:45:29.294Z,21.15
2019-03-01T06:47:30.904Z,21.11
2019-03-01T06:49:38.146Z,21.08
2019-03-01T06:51:39.747Z,21.07
2019-03-01T06:53:41.351Z,21.06
2019-03-01T06:55:42.987Z,21.06
2019-03-01T06:57:44.600Z,21.05
2019-03-01T06:59:46.198Z,21.02
2019-03-01T07:01:47.800Z,21.02
2019-03-01T07:03:49.406Z,21.00
2019-03-01T07:05:51.002Z,20.99
2019-03-01T07:07:52.640Z,20.97
2019-03-01T07:09:54.234Z,20.98
2019-03-01T07:11:55.862Z,21.00
2019-03-01T07:13:57.465Z,21.03
2019-03-01T07:15:59.066Z,21.04
2019-03-01T07:18:00.703Z,21.06
2019-03-01T07:20:02.298Z,21.09
2019-03-01T07:22:03.889Z,21.12
2019-03-01T07:24:05.619Z,21.15
2019-03-01T07:26:07.169Z,21.18
2019-03-01T07:28:08.817Z,21.23
2019-03-01T07:30:10.508Z,21.23
2019-03-01T07:32:12.182Z,21.30
2019-03-01T07:34:13.782Z,21.31
2019-03-01T07:36:15.382Z,21.32
2019-03-01T07:38:16.967Z,21.34
2019-03-01T07:40:18.560Z,21.35
2019-03-01T07:42:20.218Z,21.33
2019-03-01T07:44:21.825Z,21.33
2019-03-01T07:46:23.421Z,21.30
2019-03-01T07:48:25.055Z,21.29
2019-03-01T07:50:26.654Z,21.26
2019-03-01T07:52:28.291Z,21.25
2019-03-01T07:54:29.953Z,20.40
2019-03-01T07:56:31.561Z,21.21
2019-03-01T07:58:33.168Z,21.18
2019-03-01T08:00:34.798Z,21.18
2019-03-01T08:02:39.724Z,21.16
2019-03-01T08:04:38.030Z,21.14
2019-03-01T08:06:39.640Z,21.11
2019-03-01T08:08:41.256Z,21.10
2019-03-01T08:10:42.858Z,21.08
2019-03-01T08:12:44.470Z,21.07
2019-03-01T08:14:46.102Z,21.05
2019-03-01T08:16:47.698Z,21.03
2019-03-01T08:18:49.298Z,20.99
2019-03-01T08:20:50.899Z,21.01
2019-03-01T08:22:52.499Z,21.00
2019-03-01T08:24:54.134Z,20.99
2019-03-01T08:26:57.124Z,20.98
2019-03-01T08:28:58.366Z,20.97
2019-03-01T08:30:59.177Z,20.98
2019-03-01T08:33:02.588Z,20.98
2019-03-01T08:35:02.434Z,20.96
2019-03-01T08:37:04.044Z,20.97
2019-03-01T08:39:05.885Z,20.99
2019-03-01T08:41:07.325Z,21.01
2019-03-01T08:43:13.009Z,21.01
2019-03-01T08:45:10.632Z,21.02
2019-03-01T08:47:12.226Z,21.02
2019-03-01T08:49:13.856Z,20.80
2019-03-01T08:51:15.472Z,21.06
2019-03-01T08:53:17.065Z,21.07
2019-03-01T08:55:18.679Z,21.10
2019-03-01T08:57:22.575Z,21.12
2019-03-01T08:59:21.953Z,21.13
2019-03-01T09:01:23.565Z,21.15
2019-03-01T09:03:25.170Z,21.15
2019-03-01T09:05:26.794Z,21.16
2019-03-01T09:07:30.210Z,21.17
2019-03-01T09:09:30.055Z,21.17
2019-03-01T09:11:31.650Z,21.19
2019-03-01T09:13:33.252Z,21.19
2019-03-01T09:15:36.772Z,21.19
2019-03-01T09:17:36.572Z,21.19
2019-03-01T09:19:38.171Z,21.17
2019-03-01T09:21:39.765Z,21.17
2019-03-01T09:23:41.373Z,21.14
2019-03-01T09:25:44.548Z,21.16
2019-03-01T09:27:44.700Z,21.13
2019-03-01T09:29:46.310Z,21.12
2019-03-01T09:31:47.896Z,21.12
2019-03-01T09:33:49.503Z,21.11
2019-03-01T09:35:55.659Z,21.11
2019-03-01T09:37:57.304Z,21.11
2019-03-01T09:40:05.579Z,21.08
2019-03-01T09:42:04.364Z,21.07
2019-03-01T09:44:03.095Z,21.05
2019-03-01T09:46:03.891Z,21.06
2019-03-01T09:48:08.612Z,21.05
2019-03-01T09:50:07.145Z,21.05
2019-03-01T09:52:08.756Z,21.05
2019-03-01T09:54:10.366Z,21.02
2019-03-01T09:56:12.921Z,21.01
2019-03-01T09:58:13.635Z,21.00
2019-03-01T10:00:15.289Z,20.99
2019-03-01T10:02:16.890Z,21.00
2019-03-01T10:04:18.510Z,20.99
2019-03-01T10:06:20.120Z,20.98
2019-03-01T10:08:21.746Z,20.98
2019-03-01T10:10:23.331Z,20.98
2019-03-01T10:12:24.926Z,21.00
2019-03-01T10:14:26.522Z,21.02
2019-03-01T10:16:28.132Z,21.03
2019-03-01T10:18:29.758Z,21.04
2019-03-01T10:20:31.350Z,21.04
2019-03-01T10:22:32.945Z,21.07
2019-03-01T10:24:34.528Z,21.07
2019-03-01T10:26:36.136Z,21.05
2019-03-01T10:28:37.743Z,21.09
2019-03-01T10:30:39.354Z,21.11
2019-03-01T10:32:40.973Z,21.11
2019-03-01T10:34:42.552Z,21.11
2019-03-01T10:36:44.136Z,21.12
2019-03-01T10:38:45.744Z,21.13
2019-03-01T10:40:47.338Z,21.13
2019-03-01T10:42:48.956Z,21.15
2019-03-01T10:44:50.550Z,21.14
2019-03-01T10:46:52.141Z,21.13
2019-03-01T10:48:53.756Z,21.14
2019-03-01T10:50:55.358Z,21.13
2019-03-01T10:52:57.049Z,21.12
2019-03-01T10:54:58.724Z,21.12
2019-03-01T10:57:00.312Z,21.11
2019-03-01T10:59:01.904Z,21.10
2019-03-01T11:01:03.509Z,21.09
2019-03-01T11:03:05.143Z,21.10
2019-03-01T11:05:06.742Z,21.08
2019-03-01T11:07:08.425Z,21.08
2019-03-01T11:09:10.034Z,21.06
2019-03-01T11:11:11.634Z,21.06
2019-03-01T11:13:13.262Z,21.03
2019-03-01T11:15:14.857Z,21.04
2019-03-01T11:17:16.464Z,21.05
2019-03-01T11:19:18.076Z,21.03
2019-03-01T11:21:19.688Z,21.03
2019-03-01T11:23:21.301Z,21.02
2019-03-01T11:25:22.911Z,21.01
2019-03-01T11:27:24.515Z,21.00
2019-03-01T11:29:26.142Z,20.98
2019-03-01T11:31:27.742Z,20.98
2019-03-01T11:33:29.347Z,20.98
2019-03-01T11:35:30.974Z,20.98
2019-03-01T11:37:32.570Z,20.98
2019-03-01T11:39:34.207Z,20.98
2019-03-01T11:41:35.806Z,20.98
2019-03-01T11:43:37.421Z,20.98
2019-03-01T11:45:39.027Z,20.98
2019-03-01T11:47:40.623Z,20.99
2019-03-01T11:49:42.228Z,20.99
2019-03-01T11:51:43.844Z,20.95
2019-03-01T11:53:45.451Z,21.01
2019-03-01T11:55:47.069Z,21.01
2019-03-01T11:57:48.712Z,20.99
2019-03-01T11:59:50.306Z,21.03
2019-03-01T12:01:51.946Z,21.05
2019-03-01T12:03:53.559Z,21.06
2019-03-01T12:05:55.158Z,21.06
2019-03-01T12:07:56.759Z,21.07
2019-03-01T12:09:58.386Z,21.08
2019-03-01T12:12:00.020Z,21.10
2019-03-01T12:14:01.651Z,21.10
2019-03-01T12:16:03.252Z,21.11
2019-03-01T12:18:04.861Z,21.11
2019-03-01T12:20:06.480Z,21.10
2019-03-01T12:22:16.762Z,21.11
2019-03-01T12:24:09.753Z,21.10
2019-03-01T12:26:11.346Z,20.96
2019-03-01T12:28:12.932Z,21.09
2019-03-01T12:30:14.572Z,21.07
2019-03-01T12:32:16.172Z,21.09
2019-03-01T12:34:17.806Z,21.09
2019-03-01T12:36:19.407Z,21.05
2019-03-01T12:38:21.032Z,21.06
2019-03-01T12:40:22.633Z,21.07
2019-03-01T12:42:24.229Z,21.07
2019-03-01T12:44:25.863Z,21.06
2019-03-01T12:46:27.461Z,21.05
2019-03-01T12:48:29.058Z,21.04
2019-03-01T12:50:30.653Z,21.03
2019-03-01T12:52:32.268Z,21.04
2019-03-01T12:54:33.913Z,21.04
2019-03-01T12:56:35.515Z,21.02
2019-03-01T12:58:37.119Z,21.02
2019-03-01T13:00:38.748Z,21.01
2019-03-01T13:02:40.347Z,20.99
2019-03-01T13:04:41.952Z,20.98
2019-03-01T13:06:43.555Z,20.97
2019-03-01T13:08:47.715Z,20.98
2019-03-01T13:10:46.823Z,20.97
2019-03-01T13:12:48.457Z,20.97
2019-03-01T13:14:50.064Z,20.97
2019-03-01T13:16:51.661Z,20.96
2019-03-01T13:18:53.254Z,20.97
2019-03-01T13:20:54.849Z,20.97
2019-03-01T13:22:56.490Z,20.98
2019-03-01T13:24:58.086Z,20.95
2019-03-01T13:26:59.727Z,20.98
2019-03-01T13:29:01.324Z,20.98
2019-03-01T13:31:02.932Z,20.99
2019-03-01T13:33:04.585Z,20.99
2019-03-01T13:35:06.200Z,21.01
2019-03-01T13:37:07.798Z,21.01
2019-03-01T13:39:10.465Z,21.02
2019-03-01T13:41:12.585Z,21.03
2019-03-01T13:43:14.544Z,21.04
2019-03-01T13:45:16.156Z,21.02
2019-03-01T13:47:17.753Z,21.03
2019-03-01T13:49:19.370Z,21.04
2019-03-01T13:51:20.967Z,21.05
2019-03-01T13:53:22.552Z,21.04
2019-03-01T13:55:24.149Z,21.04
2019-03-01T13:57:25.742Z,21.05
2019-03-01T13:59:27.378Z,21.04
2019-03-01T14:01:28.990Z,21.05
2019-03-01T14:03:30.576Z,21.05
2019-03-01T14:05:32.183Z,21.05
2019-03-01T14:07:33.763Z,21.05
2019-03-01T14:09:35.366Z,21.03
2019-03-01T14:11:36.976Z,21.04
2019-03-01T14:13:38.617Z,21.04
2019-03-01T14:15:40.214Z,21.03
2019-03-01T14:17:41.809Z,21.08
2019-03-01T14:19:43.462Z,21.78
2019-03-01T14:21:45.057Z,22.19
2019-03-01T14:23:46.664Z,22.52
2019-03-01T14:25:48.271Z,22.65
2019-03-01T14:27:49.887Z,22.55
2019-03-01T14:29:53.668Z,22.41
2019-03-01T14:31:53.195Z,22.53
2019-03-01T14:33:54.790Z,22.52
2019-03-01T14:35:59.156Z,22.74
2019-03-01T14:37:58.068Z,22.78
2019-03-01T14:39:59.670Z,22.94
2019-03-01T14:42:01.266Z,23.12
2019-03-01T14:44:02.871Z,23.26
2019-03-01T14:46:04.456Z,23.36
2019-03-01T14:48:08.692Z,23.38
2019-03-01T14:50:08.547Z,23.33
2019-03-01T14:52:10.154Z,23.32
2019-03-01T14:54:11.792Z,23.34
2019-03-01T14:56:13.404Z,23.43
2019-03-01T14:58:15.056Z,23.61
2019-03-01T15:00:16.654Z,23.70
2019-03-01T15:02:18.247Z,23.64
2019-03-01T15:04:19.842Z,23.64
2019-03-01T15:06:21.448Z,23.68
2019-03-01T15:08:23.028Z,23.64
2019-03-01T15:10:24.671Z,23.77
2019-03-01T15:12:26.278Z,23.64
2019-03-01T15:14:27.879Z,23.58
2019-03-01T15:16:29.532Z,23.11
2019-03-01T15:18:32.369Z,23.25
2019-03-01T15:20:32.790Z,23.23
2019-03-01T15:22:34.387Z,23.23
2019-03-01T15:24:36.282Z,23.73
2019-03-01T15:26:37.726Z,23.82
2019-03-01T15:28:39.322Z,23.43
2019-03-01T15:30:42.576Z,23.01
2019-03-01T15:32:42.622Z,23.23
2019-03-01T15:34:44.208Z,23.51
2019-03-01T15:36:45.802Z,23.47
2019-03-01T15:38:47.422Z,23.62
2019-03-01T15:40:49.034Z,23.41
2019-03-01T15:42:51.525Z,22.81
2019-03-01T15:44:52.349Z,22.86
2019-03-01T15:46:53.935Z,23.05
2019-03-01T15:48:55.542Z,23.15
2019-03-01T15:50:59.023Z,23.17
2019-03-01T15:52:58.816Z,23.21
2019-03-01T15:55:00.414Z,23.24
2019-03-01T15:57:02.025Z,22.93
2019-03-01T15:59:06.066Z,22.41
2019-03-01T16:01:05.469Z,22.34
2019-03-01T16:03:06.987Z,22.19
2019-03-01T16:05:08.585Z,22.15
2019-03-01T16:07:10.206Z,22.07
2019-03-01T16:09:11.812Z,22.03
2019-03-01T16:11:13.612Z,22.00
2019-03-01T16:13:15.124Z,21.97
2019-03-01T16:15:16.727Z,21.99
2019-03-01T16:17:18.342Z,22.00
2019-03-01T16:19:19.958Z,21.99
2019-03-01T16:21:21.571Z,21.97
2019-03-01T16:23:23.229Z,21.97
2019-03-01T16:25:24.840Z,22.05
2019-03-01T16:27:26.488Z,22.14
2019-03-01T16:29:28.080Z,22.25
2019-03-01T16:31:32.938Z,22.30
2019-03-01T16:33:34.171Z,22.13
2019-03-01T16:35:35.779Z,22.42
2019-03-01T16:37:37.809Z,22.37
2019-03-01T16:39:39.764Z,22.55
2019-03-01T16:41:42.798Z,22.59
2019-03-01T16:43:43.083Z,22.66
2019-03-01T16:45:44.710Z,22.66
2019-03-01T16:47:46.320Z,22.69
2019-03-01T16:49:47.937Z,22.70
2019-03-01T16:51:50.626Z,22.70
2019-03-01T16:53:52.180Z,22.74
2019-03-01T16:55:55.840Z,22.66
2019-03-01T16:58:06.181Z,22.54
2019-03-01T16:59:59.407Z,22.43
2019-03-01T17:02:06.339Z,22.79
2019-03-01T17:04:02.761Z,23.06
2019-03-01T17:06:04.380Z,23.41
2019-03-01T17:08:06.175Z,23.39
2019-03-01T17:10:07.661Z,23.57
2019-03-01T17:12:09.281Z,23.63
2019-03-01T17:14:10.901Z,23.71
2019-03-01T17:16:12.558Z,23.74
2019-03-01T17:18:14.200Z,23.93
2019-03-01T17:20:15.815Z,23.56
2019-03-01T17:22:17.419Z,23.82
2019-03-01T17:24:19.018Z,23.69
2019-03-01T17:26:20.623Z,23.59
2019-03-01T17:28:24.269Z,23.53
2019-03-01T17:30:23.940Z,23.65
2019-03-01T17:32:25.662Z,23.55
2019-03-01T17:34:29.315Z,23.48
2019-03-01T17:36:28.955Z,23.27
2019-03-01T17:38:30.624Z,23.23
2019-03-01T17:40:32.664Z,23.18
2019-03-01T17:42:33.876Z,23.11
2019-03-01T17:44:35.463Z,23.08
2019-03-01T17:46:37.052Z,23.11
2019-03-01T17:48:38.648Z,23.18
2019-03-01T17:50:41.697Z,23.05
2019-03-01T17:52:43.824Z,23.03
2019-03-01T17:54:43.664Z,23.01
2019-03-01T17:56:45.418Z,22.93
2019-03-01T17:58:47.093Z,23.09
2019-03-01T18:00:48.744Z,22.97
2019-03-01T18:02:52.118Z,22.46
2019-03-01T18:04:51.997Z,23.15
2019-03-01T18:06:53.602Z,23.12
2019-03-01T18:08:55.212Z,22.75
2019-03-01T18:10:56.846Z,22.57
2019-03-01T18:12:58.451Z,22.74
2019-03-01T18:15:00.096Z,22.92
2019-03-01T18:17:01.734Z,23.05
2019-03-01T18:19:03.335Z,23.27
2019-03-01T18:21:05.436Z,23.58
2019-03-01T18:23:07.047Z,23.70
2019-03-01T18:25:08.668Z,23.79
2019-03-01T18:27:12.299Z,23.72
2019-03-01T18:29:11.916Z,23.76
2019-03-01T18:31:13.572Z,23.71
2019-03-01T18:33:16.852Z,23.67
2019-03-01T18:35:16.838Z,23.73
2019-03-01T18:37:19.817Z,23.90
2019-03-01T18:39:20.098Z,23.90
2019-03-01T18:41:24.136Z,24.16
2019-03-01T18:43:24.005Z,24.11
2019-03-01T18:45:25.616Z,24.05
2019-03-01T18:47:27.893Z,24.20
2019-03-01T18:49:28.873Z,24.01
2019-03-01T18:51:30.475Z,23.94
2019-03-01T18:53:32.117Z,23.94
2019-03-01T18:55:33.727Z,23.89
2019-03-01T18:57:35.406Z,23.92
2019-03-01T18:59:36.993Z,24.17
2019-03-01T19:01:38.619Z,24.07
2019-03-01T19:03:41.227Z,23.89
2019-03-01T19:05:41.908Z,24.22
2019-03-01T19:07:43.553Z,24.09
2019-03-01T19:09:45.210Z,23.92
2019-03-01T19:11:46.821Z,24.02
2019-03-01T19:13:48.460Z,24.02
2019-03-01T19:15:54.325Z,24.00
2019-03-01T19:17:51.751Z,24.03
2019-03-01T19:19:53.349Z,24.10
2019-03-01T19:21:54.961Z,24.10
2019-03-01T19:23:56.568Z,24.05
2019-03-01T19:26:01.640Z,24.03
2019-03-01T19:27:59.850Z,23.89
2019-03-01T19:30:01.506Z,23.83
2019-03-01T19:32:03.113Z,23.38
2019-03-01T19:34:04.725Z,23.56
2019-03-01T19:36:06.408Z,23.41
2019-03-01T19:38:08.028Z,23.69
2019-03-01T19:40:10.869Z,23.69
2019-03-01T19:42:11.340Z,23.72
2019-03-01T19:44:13.798Z,23.76
2019-03-01T19:46:15.648Z,23.67
2019-03-01T19:48:17.082Z,23.72
2019-03-01T19:50:21.709Z,23.76
2019-03-01T19:52:20.359Z,23.80
2019-03-01T19:54:21.990Z,23.71
2019-03-01T19:56:25.873Z,23.64
2019-03-01T19:58:25.376Z,23.48
2019-03-01T20:00:27.002Z,23.43
2019-03-01T20:02:31.026Z,23.18
2019-03-01T20:04:30.604Z,22.87
2019-03-01T20:06:32.222Z,22.54
2019-03-01T20:08:33.897Z,22.78
2019-03-01T20:10:36.899Z,22.87
2019-03-01T20:12:40.498Z,23.29
2019-03-01T20:14:39.316Z,23.48
2019-03-01T20:16:40.982Z,23.71
2019-03-01T20:18:45.020Z,23.70
2019-03-01T20:20:44.217Z,23.80
2019-03-01T20:22:45.813Z,23.84
2019-03-01T20:24:47.406Z,24.01
2019-03-01T20:26:49.121Z,23.94
2019-03-01T20:28:51.361Z,23.86
2019-03-01T20:30:52.579Z,23.75
2019-03-01T20:32:55.050Z,23.90
2019-03-01T20:34:56.640Z,24.02
2019-03-01T20:36:58.250Z,24.02
2019-03-01T20:38:59.855Z,24.17
2019-03-01T20:41:03.186Z,23.77
2019-03-01T20:43:06.909Z,24.09
2019-03-01T20:45:04.805Z,24.05
2019-03-01T20:47:06.447Z,23.92
2019-03-01T20:49:08.064Z,24.03
2019-03-01T20:51:09.686Z,24.20
2019-03-01T20:53:13.279Z,24.01
2019-03-01T20:55:13.104Z,24.10
2019-03-01T20:57:14.723Z,24.34
2019-03-01T20:59:16.368Z,24.18
2019-03-01T21:01:17.979Z,24.06
2019-03-01T21:03:19.631Z,24.04
2019-03-01T21:05:21.251Z,24.29
2019-03-01T21:07:22.881Z,24.34
2019-03-01T21:09:24.581Z,24.38
2019-03-01T21:11:26.535Z,24.32
2019-03-01T21:13:28.060Z,24.26
2019-03-01T21:15:29.730Z,23.98
2019-03-01T21:17:31.316Z,24.01
2019-03-01T21:19:32.913Z,23.91
2019-03-01T21:21:34.557Z,23.85
2019-03-01T21:23:36.167Z,23.74
2019-03-01T21:25:39.791Z,23.78
2019-03-01T21:27:39.440Z,23.75
2019-03-01T21:29:41.064Z,23.73
2019-03-01T21:31:42.669Z,23.73
2019-03-01T21:33:44.280Z,23.72
2019-03-01T21:35:47.848Z,23.67
2019-03-01T21:37:47.624Z,23.65
2019-03-01T21:39:49.239Z,23.65
2019-03-01T21:41:51.392Z,23.64
2019-03-01T21:43:52.510Z,23.67
2019-03-01T21:45:55.598Z,23.66
2019-03-01T21:47:55.886Z,23.64
2019-03-01T21:49:59.937Z,23.57
2019-03-01T21:51:59.300Z,23.48
2019-03-01T21:54:01.032Z,23.47
2019-03-01T21:56:04.628Z,23.38
2019-03-01T21:58:06.516Z,23.38
2019-03-01T22:00:05.975Z,23.39
2019-03-01T22:02:07.587Z,23.25
2019-03-01T22:04:09.586Z,22.99
2019-03-01T22:06:11.206Z,23.30
2019-03-01T22:08:13.149Z,23.70
2019-03-01T22:10:14.491Z,23.95
2019-03-01T22:12:16.099Z,24.03
2019-03-01T22:14:17.716Z,23.90
2019-03-01T22:16:19.376Z,23.97
2019-03-01T22:18:23.745Z,23.94
2019-03-01T22:20:22.654Z,24.05
2019-03-01T22:22:24.295Z,24.12
2019-03-01T22:24:26.482Z,24.04
2019-03-01T22:26:28.231Z,24.08
2019-03-01T22:28:32.782Z,24.08
2019-03-01T22:30:31.526Z,24.08
2019-03-01T22:32:33.140Z,24.10
2019-03-01T22:34:34.738Z,23.94
2019-03-01T22:36:36.557Z,24.27
2019-03-01T22:38:41.399Z,24.24
2019-03-01T22:40:39.814Z,24.11
2019-03-01T22:42:41.418Z,24.04
2019-03-01T22:44:43.788Z,23.96
2019-03-01T22:46:44.693Z,24.00
2019-03-01T22:48:48.939Z,23.95
2019-03-01T22:50:47.987Z,24.03
2019-03-01T22:52:49.603Z,24.11
2019-03-01T22:54:51.302Z,24.08
2019-03-01T22:56:52.926Z,24.22
2019-03-01T22:58:54.555Z,24.12
2019-03-01T23:01:04.180Z,24.10
2019-03-01T23:03:05.792Z,24.50
2019-03-01T23:05:07.399Z,24.43
2019-03-01T23:07:09.011Z,24.16
2019-03-01T23:09:11.531Z,24.08
2019-03-01T23:11:12.304Z,24.09
2019-03-01T23:13:16.911Z,24.05
2019-03-01T23:15:15.571Z,24.03
2019-03-01T23:17:17.196Z,23.70
2019-03-01T23:19:18.805Z,23.99
2019-03-01T23:21:20.401Z,23.96
2019-03-01T23:23:23.918Z,23.92
2019-03-01T23:25:23.673Z,23.83
2019-03-01T23:27:28.410Z,23.79
2019-03-01T23:29:26.914Z,23.77
2019-03-01T23:31:28.506Z,23.73
2019-03-01T23:33:31.666Z,23.34
2019-03-01T23:35:31.796Z,23.20
2019-03-01T23:37:35.646Z,23.46
2019-03-01T23:39:35.047Z,23.62
2019-03-01T23:41:36.711Z,23.67
2019-03-01T23:43:38.324Z,23.81
2019-03-01T23:45:39.969Z,23.92
2019-03-01T23:47:41.566Z,23.86
2019-03-01T23:49:43.179Z,24.10
2019-03-01T23:51:45.430Z,24.01
2019-03-01T23:53:46.456Z,23.93
2019-03-01T23:55:50.882Z,23.99
2019-03-01T23:57:49.726Z,24.21
2019-03-01T23:59:51.323Z,23.94
